SWR2MC LSZH-EDDM
Flight info
| Callsign | SWR2MC |
|---|---|
| Flight time | N/A |
| Altitude | 20000 |
| Route | DEGES Z6 NUNRI/N0384F190 T103 BETOS BETOS1B |
| Aircraft | A320/M-SDE3FGHIRWY/LB1 |
Departure
| Time | 2026-04-26 08:25 |
|---|---|
| Airport | Zürich Airport (LSZH) |
Arrival
| Time | N/A |
|---|---|
| Airport | Munich Airport (EDDM) |
| Time | Latitude | Longitude | Altitude | Speed | Heading |
|---|---|---|---|---|---|
| 2026-04-26 07:48 | 47.45337 | 8.55945 | 1401 ft | 0 kts | 6° |
| 2026-04-26 08:05 | 47.45328 | 8.55944 | 1405 ft | 4 kts | 5° |
| 2026-04-26 08:05 | 47.45301 | 8.55942 | 1404 ft | 4 kts | 358° |
| 2026-04-26 08:05 | 47.45275 | 8.55945 | 1402 ft | 4 kts | 345° |
| 2026-04-26 08:05 | 47.45252 | 8.55961 | 1400 ft | 4 kts | 304° |
| 2026-04-26 08:06 | 47.45247 | 8.55978 | 1404 ft | 1 kts | 276° |
| 2026-04-26 08:06 | 47.45247 | 8.55981 | 1404 ft | 0 kts | 276° |
| 2026-04-26 08:10 | 47.45247 | 8.55980 | 1397 ft | 0 kts | 276° |
| 2026-04-26 08:10 | 47.45248 | 8.55964 | 1403 ft | 3 kts | 276° |
| 2026-04-26 08:10 | 47.45252 | 8.55916 | 1397 ft | 6 kts | 276° |
| 2026-04-26 08:11 | 47.45256 | 8.55853 | 1397 ft | 5 kts | 276° |
| 2026-04-26 08:11 | 47.45259 | 8.55806 | 1399 ft | 4 kts | 276° |
| 2026-04-26 08:11 | 47.45262 | 8.55770 | 1397 ft | 3 kts | 276° |
| 2026-04-26 08:11 | 47.45264 | 8.55738 | 1397 ft | 4 kts | 276° |
| 2026-04-26 08:12 | 47.45267 | 8.55700 | 1397 ft | 6 kts | 276° |
| 2026-04-26 08:12 | 47.45272 | 8.55628 | 1397 ft | 6 kts | 276° |
| 2026-04-26 08:12 | 47.45290 | 8.55572 | 1404 ft | 7 kts | 314° |
| 2026-04-26 08:12 | 47.45342 | 8.55533 | 1401 ft | 8 kts | 335° |
| 2026-04-26 08:13 | 47.45392 | 8.55499 | 1403 ft | 8 kts | 335° |
| 2026-04-26 08:13 | 47.45439 | 8.55467 | 1397 ft | 7 kts | 335° |
| 2026-04-26 08:13 | 47.45477 | 8.55441 | 1404 ft | 5 kts | 335° |
| 2026-04-26 08:13 | 47.45505 | 8.55421 | 1397 ft | 4 kts | 335° |
| 2026-04-26 08:14 | 47.45530 | 8.55404 | 1408 ft | 6 kts | 334° |
| 2026-04-26 08:14 | 47.45565 | 8.55379 | 1403 ft | 5 kts | 335° |
| 2026-04-26 08:14 | 47.45577 | 8.55371 | 1397 ft | 0 kts | 335° |
| 2026-04-26 08:15 | 47.45579 | 8.55370 | 1397 ft | 2 kts | 335° |
| 2026-04-26 08:15 | 47.45617 | 8.55344 | 1403 ft | 9 kts | 337° |
| 2026-04-26 08:15 | 47.45668 | 8.55368 | 1406 ft | 9 kts | 62° |
| 2026-04-26 08:15 | 47.45668 | 8.55451 | 1397 ft | 8 kts | 95° |
| 2026-04-26 08:16 | 47.45661 | 8.55534 | 1404 ft | 7 kts | 96° |
| 2026-04-26 08:16 | 47.45656 | 8.55613 | 1397 ft | 8 kts | 95° |
| 2026-04-26 08:16 | 47.45650 | 8.55691 | 1397 ft | 7 kts | 96° |
| 2026-04-26 08:16 | 47.45644 | 8.55777 | 1406 ft | 8 kts | 95° |
| 2026-04-26 08:17 | 47.45639 | 8.55858 | 1398 ft | 9 kts | 96° |
| 2026-04-26 08:17 | 47.45632 | 8.55954 | 1403 ft | 9 kts | 95° |
| 2026-04-26 08:17 | 47.45626 | 8.56040 | 1398 ft | 8 kts | 96° |
| 2026-04-26 08:17 | 47.45621 | 8.56109 | 1398 ft | 6 kts | 96° |
| 2026-04-26 08:18 | 47.45615 | 8.56188 | 1402 ft | 9 kts | 96° |
| 2026-04-26 08:18 | 47.45609 | 8.56277 | 1398 ft | 8 kts | 96° |
| 2026-04-26 08:18 | 47.45602 | 8.56364 | 1407 ft | 8 kts | 96° |
| 2026-04-26 08:18 | 47.45597 | 8.56437 | 1402 ft | 8 kts | 95° |
| 2026-04-26 08:19 | 47.45591 | 8.56530 | 1403 ft | 9 kts | 96° |
| 2026-04-26 08:19 | 47.45584 | 8.56627 | 1401 ft | 9 kts | 96° |
| 2026-04-26 08:19 | 47.45578 | 8.56708 | 1406 ft | 7 kts | 96° |
| 2026-04-26 08:19 | 47.45574 | 8.56768 | 1401 ft | 5 kts | 96° |
| 2026-04-26 08:20 | 47.45569 | 8.56831 | 1399 ft | 6 kts | 96° |
| 2026-04-26 08:20 | 47.45565 | 8.56886 | 1399 ft | 5 kts | 96° |
| 2026-04-26 08:20 | 47.45562 | 8.56933 | 1400 ft | 7 kts | 91° |
| 2026-04-26 08:20 | 47.45576 | 8.56993 | 1408 ft | 5 kts | 52° |
| 2026-04-26 08:21 | 47.45592 | 8.57011 | 1407 ft | 2 kts | 31° |
| 2026-04-26 08:21 | 47.45601 | 8.57016 | 1409 ft | 0 kts | 21° |
| 2026-04-26 08:21 | 47.45609 | 8.57019 | 1408 ft | 4 kts | 16° |
| 2026-04-26 08:21 | 47.45623 | 8.57024 | 1409 ft | 0 kts | 10° |
| 2026-04-26 08:22 | 47.45642 | 8.57027 | 1406 ft | 7 kts | 2° |
| 2026-04-26 08:22 | 47.45668 | 8.56984 | 1408 ft | 5 kts | 274° |
| 2026-04-26 08:22 | 47.45668 | 8.56938 | 1406 ft | 4 kts | 270° |
| 2026-04-26 08:22 | 47.45669 | 8.56907 | 1406 ft | 0 kts | 276° |
| 2026-04-26 08:24 | 47.45671 | 8.56870 | 1406 ft | 18 kts | 275° |
| 2026-04-26 08:24 | 47.45715 | 8.56265 | 1406 ft | 96 kts | 276° |
| 2026-04-26 08:24 | 47.45805 | 8.55000 | 1397 ft | 152 kts | 276° |
| 2026-04-26 08:24 | 47.45921 | 8.53366 | 1938 ft | 159 kts | 279° |
| 2026-04-26 08:25 | 47.46033 | 8.51734 | 2721 ft | 161 kts | 279° |
| 2026-04-26 08:25 | 47.46153 | 8.50043 | 3266 ft | 172 kts | 277° |
| 2026-04-26 08:25 | 47.46229 | 8.48204 | 3704 ft | 189 kts | 264° |
| 2026-04-26 08:25 | 47.45745 | 8.46306 | 3928 ft | 210 kts | 231° |
| 2026-04-26 08:26 | 47.44694 | 8.44677 | 4186 ft | 231 kts | 229° |
| 2026-04-26 08:26 | 47.43846 | 8.42515 | 4531 ft | 256 kts | 243° |
| 2026-04-26 08:26 | 47.43039 | 8.40057 | 5063 ft | 274 kts | 243° |
| 2026-04-26 08:26 | 47.41965 | 8.37887 | 6363 ft | 253 kts | 217° |
| 2026-04-26 08:27 | 47.40405 | 8.36935 | 7476 ft | 242 kts | 182° |
| 2026-04-26 08:27 | 47.38806 | 8.37510 | 8274 ft | 240 kts | 144° |
| 2026-04-26 08:27 | 47.37792 | 8.39375 | 8977 ft | 240 kts | 105° |
| 2026-04-26 08:27 | 47.37702 | 8.41798 | 9644 ft | 240 kts | 73° |
| 2026-04-26 08:28 | 47.38515 | 8.43916 | 10341 ft | 240 kts | 45° |
| 2026-04-26 08:28 | 47.39696 | 8.45668 | 10988 ft | 242 kts | 43° |
| 2026-04-26 08:28 | 47.40905 | 8.47426 | 11623 ft | 246 kts | 43° |
| 2026-04-26 08:28 | 47.42136 | 8.49208 | 12257 ft | 249 kts | 42° |
| 2026-04-26 08:29 | 47.43386 | 8.51010 | 12917 ft | 253 kts | 42° |
| 2026-04-26 08:29 | 47.44646 | 8.52856 | 13548 ft | 257 kts | 45° |
| 2026-04-26 08:29 | 47.45760 | 8.54951 | 14151 ft | 264 kts | 60° |
| 2026-04-26 08:29 | 47.46353 | 8.57625 | 14336 ft | 288 kts | 80° |
| 2026-04-26 08:30 | 47.46507 | 8.60695 | 14482 ft | 312 kts | 88° |
| 2026-04-26 08:30 | 47.46483 | 8.64018 | 14604 ft | 335 kts | 90° |
| 2026-04-26 08:30 | 47.46421 | 8.67569 | 14723 ft | 356 kts | 90° |
| 2026-04-26 08:30 | 47.46398 | 8.71327 | 14894 ft | 374 kts | 89° |
| 2026-04-26 08:31 | 47.46444 | 8.75210 | 15383 ft | 380 kts | 87° |
| 2026-04-26 08:31 | 47.46552 | 8.79133 | 15952 ft | 384 kts | 86° |
| 2026-04-26 08:31 | 47.46499 | 8.83104 | 16508 ft | 390 kts | 95° |
| 2026-04-26 08:31 | 47.46033 | 8.87071 | 17087 ft | 394 kts | 101° |
| 2026-04-26 08:32 | 47.45472 | 8.91052 | 17664 ft | 397 kts | 101° |
| 2026-04-26 08:32 | 47.44895 | 8.95051 | 18262 ft | 400 kts | 101° |
| 2026-04-26 08:32 | 47.44309 | 8.99082 | 18772 ft | 403 kts | 101° |
| 2026-04-26 08:32 | 47.43718 | 9.03150 | 19253 ft | 406 kts | 101° |
| 2026-04-26 08:33 | 47.43125 | 9.07242 | 19728 ft | 409 kts | 101° |
| 2026-04-26 08:33 | 47.42530 | 9.11369 | 20121 ft | 412 kts | 100° |
| 2026-04-26 08:33 | 47.42204 | 9.15568 | 20227 ft | 415 kts | 90° |
| 2026-04-26 08:33 | 47.42385 | 9.19873 | 20248 ft | 424 kts | 80° |
| 2026-04-26 08:34 | 47.43101 | 9.24105 | 20253 ft | 425 kts | 70° |
| 2026-04-26 08:34 | 47.44298 | 9.28031 | 20249 ft | 424 kts | 59° |
| 2026-04-26 08:34 | 47.45776 | 9.31815 | 20245 ft | 425 kts | 59° |
| 2026-04-26 08:34 | 47.47248 | 9.35597 | 20248 ft | 425 kts | 59° |
| 2026-04-26 08:35 | 47.48718 | 9.39389 | 20250 ft | 425 kts | 59° |
| 2026-04-26 08:35 | 47.50184 | 9.43180 | 20246 ft | 425 kts | 59° |
| 2026-04-26 08:35 | 47.51651 | 9.46983 | 20245 ft | 425 kts | 59° |
| 2026-04-26 08:35 | 47.53113 | 9.50779 | 20247 ft | 425 kts | 59° |
| 2026-04-26 08:36 | 47.54577 | 9.54586 | 20244 ft | 425 kts | 59° |
| 2026-04-26 08:36 | 47.56035 | 9.58386 | 20243 ft | 425 kts | 59° |
| 2026-04-26 08:36 | 47.57494 | 9.62187 | 20243 ft | 425 kts | 59° |
| 2026-04-26 08:36 | 47.58895 | 9.66035 | 20241 ft | 425 kts | 64° |
| 2026-04-26 08:37 | 47.60081 | 9.70067 | 20248 ft | 433 kts | 66° |
| 2026-04-26 08:37 | 47.61301 | 9.74233 | 20246 ft | 447 kts | 65° |
| 2026-04-26 08:37 | 47.62554 | 9.78503 | 20247 ft | 455 kts | 65° |
| 2026-04-26 08:37 | 47.63819 | 9.82827 | 20250 ft | 458 kts | 65° |
| 2026-04-26 08:38 | 47.65083 | 9.87161 | 20247 ft | 458 kts | 65° |
| 2026-04-26 08:38 | 47.66346 | 9.91499 | 20250 ft | 458 kts | 66° |
| 2026-04-26 08:38 | 47.67609 | 9.95841 | 20245 ft | 458 kts | 65° |
| 2026-04-26 08:38 | 47.68869 | 10.00185 | 20244 ft | 458 kts | 65° |
| 2026-04-26 08:39 | 47.69966 | 10.04625 | 20243 ft | 460 kts | 76° |
| 2026-04-26 08:39 | 47.70251 | 10.09284 | 20247 ft | 461 kts | 93° |
| 2026-04-26 08:39 | 47.69623 | 10.13953 | 20247 ft | 463 kts | 109° |
| 2026-04-26 08:39 | 47.68121 | 10.18168 | 20246 ft | 463 kts | 126° |
| 2026-04-26 08:40 | 47.65883 | 10.21582 | 20244 ft | 463 kts | 142° |
| 2026-04-26 08:40 | 47.63180 | 10.24164 | 20241 ft | 462 kts | 149° |
| 2026-04-26 08:40 | 47.60418 | 10.26606 | 20234 ft | 462 kts | 149° |
| 2026-04-26 08:40 | 47.57650 | 10.29042 | 20228 ft | 462 kts | 149° |
| 2026-04-26 08:41 | 47.54904 | 10.31529 | 20225 ft | 462 kts | 145° |
| 2026-04-26 08:41 | 47.52667 | 10.34808 | 20223 ft | 454 kts | 124° |
| 2026-04-26 08:41 | 47.51396 | 10.38927 | 20236 ft | 433 kts | 102° |
| 2026-04-26 08:41 | 47.51254 | 10.43300 | 20234 ft | 425 kts | 80° |
| 2026-04-26 08:42 | 47.51921 | 10.47548 | 20235 ft | 423 kts | 73° |
| 2026-04-26 08:42 | 47.53061 | 10.51520 | 20239 ft | 419 kts | 54° |
| 2026-04-26 08:42 | 47.54949 | 10.54778 | 20234 ft | 417 kts | 44° |
| 2026-04-26 08:42 | 47.56811 | 10.58074 | 20231 ft | 419 kts | 55° |
| 2026-04-26 08:43 | 47.58194 | 10.61889 | 20232 ft | 421 kts | 63° |
| 2026-04-26 08:43 | 47.59419 | 10.65829 | 20231 ft | 421 kts | 64° |
| 2026-04-26 08:43 | 47.60678 | 10.69740 | 20231 ft | 420 kts | 62° |
| 2026-04-26 08:43 | 47.62032 | 10.73581 | 20229 ft | 420 kts | 60° |
| 2026-04-26 08:44 | 47.63470 | 10.77342 | 20229 ft | 419 kts | 58° |
| 2026-04-26 08:44 | 47.64965 | 10.81059 | 20228 ft | 419 kts | 57° |
| 2026-04-26 08:44 | 47.66486 | 10.84758 | 20230 ft | 419 kts | 57° |
| 2026-04-26 08:44 | 47.68169 | 10.88278 | 20224 ft | 417 kts | 48° |
| 2026-04-26 08:45 | 47.70200 | 10.91336 | 20227 ft | 415 kts | 39° |
| 2026-04-26 08:45 | 47.72426 | 10.93979 | 20220 ft | 414 kts | 37° |
| 2026-04-26 08:45 | 47.74649 | 10.96604 | 19979 ft | 402 kts | 37° |
| 2026-04-26 08:45 | 47.76819 | 10.99186 | 19737 ft | 396 kts | 37° |
| 2026-04-26 08:46 | 47.78914 | 11.01687 | 19428 ft | 369 kts | 37° |
| 2026-04-26 08:46 | 47.80825 | 11.03951 | 18978 ft | 336 kts | 37° |
| 2026-04-26 08:46 | 47.82739 | 11.06050 | 18503 ft | 359 kts | 36° |
| 2026-04-26 08:46 | 47.84789 | 11.08484 | 18036 ft | 393 kts | 38° |
| 2026-04-26 08:47 | 47.86975 | 11.11187 | 17655 ft | 421 kts | 39° |
| 2026-04-26 08:47 | 47.89305 | 11.14007 | 17474 ft | 440 kts | 37° |
| 2026-04-26 08:47 | 47.91754 | 11.16822 | 17689 ft | 447 kts | 36° |
| 2026-04-26 08:47 | 47.94266 | 11.19596 | 18051 ft | 450 kts | 37° |